Portada
METAR-TAF:

METAR-TAF

Aeropuertos :

Aeropuerto de Aviñón-Provenza

Aviñón, Francia

latitud: 43-54-26N, longitud: 004-54-07E, altitud: 38 m

Observación

El informe se hizo hace 25 minutos, a las 21:30 UTC
Viento 3 kt del sur
Temperatura 16°C
Humedad 82%
Presión 1014 hPa
Visibilidad 10 km o más
sin nubes por debajo de 1500 m y sin presencia de cumulonimbus.

METAR: LFMV 062130Z AUTO 17003KT CAVOK 16/13 Q1014

Hora: 23:55 (21:55 UTC)

Pronóstico

El informe se hizo hace 7 horas y 55 minutos, a las 14:00 UTC
Pronóstico válido del 06 a las 15 UTC al 07 a las 15 UTC
Viento 3 kt con dirección variable
Visibilidad 10 km o más
sin nubes por debajo de 1500 m y sin presencia de cumulonimbus.
Probabilidad 30% :
Temporalmente
del 06 a las 23 UTC al 07 a las 03 UTC
Cielo nuboso a una altura de 500 ft

TAF: LFMV 061400Z 0615/0715 VRB03KT CAVOK PROB30 TEMPO 0623/0703 BKN005

Observaciones y pronósticos meteorológicos de más de 4000 aeropuertos (mensajes METAR y TAF).

Los puntos amarillos y rojos representan las estaciones disponibles.

Ponga el ratón en el punto deseado para ver el nombre de la estación.

Haga clic para ver las observaciones y los pronósticos meteorológicos.

Para cambiar el mapa : haga clic en los botones verdes con una cruz de color negro para hacer un zoom, en el botón verde con un guión para alejar o en las flechas verdes para mapas adyacentes.


METAR-TAF: